Terminal Aerodrome Forecast
Issued by NWS

Home | Current Version | Previous Version | Graphics & Text | Print | Product List | Glossary On
Versions: 1 2 3 4 5 6 7 8 9 10 11 12 13 14
000
FTUS43 KOAX 191100
TAFCDR
TAF
KCDR 191120Z 1912/2012 24007KT P6SM SCT100
     FM191600 33010G20KT P6SM SCT080
     FM200100 05006KT P6SM SKC=

USA.gov is the U.S. government's official web portal to all federal, state and local government web resources and services.